createdAt,value
2018-05-24T00:00:00.989Z,19.6
2018-05-24T00:01:00.981Z,19.58
2018-05-24T00:02:00.967Z,19.57
2018-05-24T00:03:00.919Z,19.6
2018-05-24T00:04:10.941Z,19.57
2018-05-24T00:05:01.114Z,19.57
2018-05-24T00:06:01.811Z,19.56
2018-05-24T00:07:01.007Z,19.56
2018-05-24T00:08:00.954Z,19.56
2018-05-24T00:09:00.948Z,19.57
2018-05-24T00:10:00.980Z,19.56
2018-05-24T00:11:00.947Z,19.57
2018-05-24T00:12:01.107Z,19.56
2018-05-24T00:13:01.021Z,19.54
2018-05-24T00:14:00.948Z,19.52
2018-05-24T00:15:01.042Z,19.53
2018-05-24T00:16:00.879Z,19.54
2018-05-24T00:17:01.043Z,19.57
2018-05-24T00:18:00.966Z,19.54
2018-05-24T00:19:01.082Z,19.54
2018-05-24T00:20:01.071Z,19.54
2018-05-24T00:21:00.864Z,19.54
2018-05-24T00:22:00.874Z,19.53
2018-05-24T00:23:01.050Z,19.53
2018-05-24T00:24:00.990Z,19.52
2018-05-24T00:25:11.076Z,19.53
2018-05-24T00:26:01.064Z,19.56
2018-05-24T00:27:01.013Z,19.54
2018-05-24T00:28:01.094Z,19.56
2018-05-24T00:29:01.142Z,19.57
2018-05-24T00:30:00.848Z,19.56
2018-05-24T00:31:01.067Z,19.53
2018-05-24T00:32:01.142Z,19.56
2018-05-24T00:33:00.984Z,19.56
2018-05-24T00:34:00.970Z,19.56
2018-05-24T00:35:01.124Z,19.53
2018-05-24T00:36:01.218Z,19.56
2018-05-24T00:37:00.910Z,19.57
2018-05-24T00:38:00.978Z,19.52
2018-05-24T00:39:01.032Z,19.53
2018-05-24T00:40:01.084Z,19.54
2018-05-24T00:41:01.031Z,19.53
2018-05-24T00:42:01.068Z,19.54
2018-05-24T00:43:00.942Z,19.57
2018-05-24T00:44:00.947Z,19.56
2018-05-24T00:45:01.092Z,19.56
2018-05-24T00:46:01.016Z,19.54
2018-05-24T00:47:00.884Z,19.54
2018-05-24T00:48:01.112Z,19.5
2018-05-24T00:49:00.856Z,19.53
2018-05-24T00:50:01.852Z,19.52
2018-05-24T00:51:00.969Z,19.54
2018-05-24T00:52:01.126Z,19.54
2018-05-24T00:53:02.100Z,19.52
2018-05-24T00:54:00.448Z,19.52
2018-05-24T00:55:00.191Z,19.54
2018-05-24T00:56:01.299Z,19.52
2018-05-24T00:57:01.023Z,19.52
2018-05-24T00:58:00.834Z,19.53
2018-05-24T00:59:00.961Z,19.54
2018-05-24T01:00:00.268Z,19.53
2018-05-24T01:01:00.704Z,19.56
2018-05-24T01:02:00.568Z,19.54
2018-05-24T01:03:00.987Z,19.53
2018-05-24T01:04:10.206Z,19.56
2018-05-24T01:05:00.711Z,19.53
2018-05-24T01:06:00.603Z,19.53
2018-05-24T01:07:01.233Z,19.56
2018-05-24T01:08:00.974Z,19.53
2018-05-24T01:09:00.200Z,19.52
2018-05-24T01:10:00.308Z,19.53
2018-05-24T01:11:00.305Z,19.5
2018-05-24T01:12:00.582Z,19.53
2018-05-24T01:13:00.226Z,19.53
2018-05-24T01:14:00.261Z,19.53
2018-05-24T01:15:00.254Z,19.52
2018-05-24T01:16:00.113Z,19.53
2018-05-24T01:17:00.315Z,19.52
2018-05-24T01:18:00.233Z,19.53
2018-05-24T01:19:01.135Z,19.54
2018-05-24T01:20:00.781Z,19.54
2018-05-24T01:21:00.981Z,19.54
2018-05-24T01:22:00.359Z,19.52
2018-05-24T01:23:00.606Z,19.53
2018-05-24T01:24:01.013Z,19.53
2018-05-24T01:25:00.223Z,19.53
2018-05-24T01:26:00.723Z,19.52
2018-05-24T01:27:00.298Z,19.52
2018-05-24T01:28:01.273Z,19.52
2018-05-24T01:29:00.719Z,19.53
2018-05-24T01:30:01.043Z,19.5
2018-05-24T01:31:00.268Z,19.53
2018-05-24T01:32:00.613Z,19.52
2018-05-24T01:33:00.702Z,19.5
2018-05-24T01:34:00.160Z,19.52
2018-05-24T01:35:00.256Z,19.52
2018-05-24T01:36:01.070Z,19.53
2018-05-24T01:37:00.646Z,19.52
2018-05-24T01:38:01.520Z,19.5
2018-05-24T01:39:00.323Z,19.49
2018-05-24T01:40:00.740Z,19.53
2018-05-24T01:41:00.633Z,19.5
2018-05-24T01:42:00.668Z,19.5
2018-05-24T01:43:00.215Z,19.53
2018-05-24T01:44:01.006Z,19.56
2018-05-24T01:45:00.234Z,19.52
2018-05-24T01:46:00.267Z,19.53
2018-05-24T01:47:01.050Z,19.53
2018-05-24T01:48:00.292Z,19.54
2018-05-24T01:49:00.249Z,19.52
2018-05-24T01:50:00.773Z,19.52
2018-05-24T01:51:01.094Z,19.52
2018-05-24T01:52:00.179Z,19.53
2018-05-24T01:53:00.702Z,19.52
2018-05-24T01:54:01.508Z,19.5
2018-05-24T01:55:00.352Z,19.52
2018-05-24T01:56:00.313Z,19.54
2018-05-24T01:57:00.221Z,19.54
2018-05-24T01:58:00.133Z,19.52
2018-05-24T01:59:00.397Z,19.52
2018-05-24T02:00:00.286Z,19.52
2018-05-24T02:01:10.196Z,19.52
2018-05-24T02:02:01.330Z,19.5
2018-05-24T02:03:00.325Z,19.49
2018-05-24T02:04:00.446Z,19.49
2018-05-24T02:05:00.412Z,19.53
2018-05-24T02:06:00.176Z,19.54
2018-05-24T02:07:00.430Z,19.52
2018-05-24T02:08:00.311Z,19.5
2018-05-24T02:09:00.380Z,19.52
2018-05-24T02:10:00.293Z,19.5
2018-05-24T02:11:00.223Z,19.5
2018-05-24T02:12:00.456Z,19.5
2018-05-24T02:13:00.275Z,19.5
2018-05-24T02:14:00.357Z,19.49
2018-05-24T02:15:00.403Z,19.5
2018-05-24T02:16:00.325Z,19.52
2018-05-24T02:17:00.279Z,19.49
2018-05-24T02:18:00.245Z,19.5
2018-05-24T02:19:00.158Z,19.5
2018-05-24T02:20:00.442Z,19.47
2018-05-24T02:21:00.225Z,19.5
2018-05-24T02:22:00.168Z,19.49
2018-05-24T02:23:00.371Z,19.49
2018-05-24T02:24:00.189Z,19.49
2018-05-24T02:25:00.195Z,19.5
2018-05-24T02:26:00.336Z,19.49
2018-05-24T02:27:00.397Z,19.49
2018-05-24T02:28:00.389Z,19.5
2018-05-24T02:29:00.980Z,19.49
2018-05-24T02:30:00.410Z,19.52
2018-05-24T02:31:00.294Z,19.5
2018-05-24T02:32:00.182Z,19.49
2018-05-24T02:33:00.161Z,19.5
2018-05-24T02:34:00.325Z,19.5
2018-05-24T02:35:00.353Z,19.52
2018-05-24T02:36:02.680Z,19.52
2018-05-24T02:37:00.318Z,19.5
2018-05-24T02:38:00.388Z,19.53
2018-05-24T02:39:00.223Z,19.49
2018-05-24T02:40:00.345Z,19.53
2018-05-24T02:41:00.448Z,19.49
2018-05-24T02:42:00.204Z,19.49
2018-05-24T02:43:00.312Z,19.5
2018-05-24T02:44:00.470Z,19.52
2018-05-24T02:45:00.385Z,19.52
2018-05-24T02:46:00.194Z,19.52
2018-05-24T02:47:00.394Z,19.5
2018-05-24T02:48:00.393Z,19.49
2018-05-24T02:49:00.208Z,19.49
2018-05-24T02:50:00.448Z,19.47
2018-05-24T02:51:00.155Z,19.46
2018-05-24T02:52:00.469Z,19.5
2018-05-24T02:53:00.397Z,19.47
2018-05-24T02:54:00.838Z,19.5
2018-05-24T02:55:00.352Z,19.5
2018-05-24T02:56:00.262Z,19.5
2018-05-24T02:57:00.368Z,19.52
2018-05-24T02:58:00.270Z,19.49
2018-05-24T02:59:00.396Z,19.47
2018-05-24T03:00:00.337Z,19.49
2018-05-24T03:01:00.365Z,19.46
2018-05-24T03:02:00.178Z,19.5
2018-05-24T03:03:00.408Z,19.46
2018-05-24T03:04:00.210Z,19.47
2018-05-24T03:05:00.519Z,19.46
2018-05-24T03:06:00.173Z,19.47
2018-05-24T03:07:00.260Z,19.46
2018-05-24T03:08:00.369Z,19.47
2018-05-24T03:09:00.141Z,19.46
2018-05-24T03:10:00.537Z,19.47
2018-05-24T03:11:00.318Z,19.46
2018-05-24T03:12:00.329Z,19.47
2018-05-24T03:13:00.306Z,19.47
2018-05-24T03:14:00.213Z,19.49
2018-05-24T03:15:00.213Z,19.47
2018-05-24T03:16:00.305Z,19.5
2018-05-24T03:17:00.198Z,19.46
2018-05-24T03:18:00.166Z,19.47
2018-05-24T03:19:00.237Z,19.5
2018-05-24T03:20:00.222Z,19.49
2018-05-24T03:21:00.317Z,19.46
2018-05-24T03:22:00.330Z,19.49
2018-05-24T03:23:00.226Z,19.47
2018-05-24T03:24:00.271Z,19.47
2018-05-24T03:25:00.206Z,19.47
2018-05-24T03:26:00.384Z,19.46
2018-05-24T03:27:00.142Z,19.47
2018-05-24T03:28:00.235Z,19.46
2018-05-24T03:29:00.300Z,19.43
2018-05-24T03:30:00.446Z,19.47
2018-05-24T03:31:00.142Z,19.47
2018-05-24T03:32:00.325Z,19.46
2018-05-24T03:33:00.182Z,19.46
2018-05-24T03:34:00.500Z,19.45
2018-05-24T03:35:00.268Z,19.47
2018-05-24T03:36:00.157Z,19.47
2018-05-24T03:37:00.375Z,19.46
2018-05-24T03:38:00.366Z,19.47
2018-05-24T03:39:00.243Z,19.47
2018-05-24T03:40:00.292Z,19.5
2018-05-24T03:41:00.665Z,19.49
2018-05-24T03:42:00.235Z,19.46
2018-05-24T03:43:00.365Z,19.47
2018-05-24T03:44:00.370Z,19.49
2018-05-24T03:45:00.148Z,19.49
2018-05-24T03:46:00.268Z,19.47
2018-05-24T03:47:00.274Z,19.47
2018-05-24T03:48:00.393Z,19.5
2018-05-24T03:49:00.361Z,19.47
2018-05-24T03:50:00.316Z,19.47
2018-05-24T03:51:00.521Z,19.47
2018-05-24T03:52:00.757Z,19.47
2018-05-24T03:53:00.267Z,19.46
2018-05-24T03:54:20.638Z,19.47
2018-05-24T03:55:00.374Z,19.5
2018-05-24T03:56:00.251Z,19.46
2018-05-24T03:57:00.337Z,19.49
2018-05-24T03:58:00.236Z,19.49
2018-05-24T03:59:00.143Z,19.42
2018-05-24T04:00:00.240Z,19.46
2018-05-24T04:01:00.267Z,19.49
2018-05-24T04:02:00.284Z,19.46
2018-05-24T04:03:00.259Z,19.47
2018-05-24T04:04:00.344Z,19.49
2018-05-24T04:05:00.239Z,19.5
2018-05-24T04:06:00.576Z,19.5
2018-05-24T04:07:00.184Z,19.5
2018-05-24T04:08:00.281Z,19.47
2018-05-24T04:09:00.082Z,19.47
2018-05-24T04:10:00.234Z,19.47
2018-05-24T04:11:00.211Z,19.46
2018-05-24T04:12:00.905Z,19.49
2018-05-24T04:13:00.194Z,19.46
2018-05-24T04:14:00.553Z,19.46
2018-05-24T04:15:00.310Z,19.49
2018-05-24T04:16:00.726Z,19.49
2018-05-24T04:17:00.259Z,19.46
2018-05-24T04:18:00.343Z,19.46
2018-05-24T04:19:00.273Z,19.46
2018-05-24T04:20:00.187Z,19.47
2018-05-24T04:21:00.283Z,19.5
2018-05-24T04:22:00.232Z,19.46
2018-05-24T04:23:00.256Z,19.47
2018-05-24T04:24:00.330Z,19.46
2018-05-24T04:25:00.448Z,19.47
2018-05-24T04:26:00.310Z,19.49
2018-05-24T04:27:00.724Z,19.49
2018-05-24T04:28:00.378Z,19.47
2018-05-24T04:29:00.161Z,19.49
2018-05-24T04:30:00.303Z,19.49
2018-05-24T04:31:00.278Z,19.45
2018-05-24T04:32:00.250Z,19.5
2018-05-24T04:33:00.638Z,19.47
2018-05-24T04:34:00.306Z,19.49
2018-05-24T04:35:00.289Z,19.49
2018-05-24T04:36:00.534Z,19.5
2018-05-24T04:37:00.271Z,19.49
2018-05-24T04:38:00.168Z,19.52
2018-05-24T04:39:00.367Z,19.49
2018-05-24T04:40:00.254Z,19.5
2018-05-24T04:41:00.379Z,19.46
2018-05-24T04:42:00.338Z,19.49
2018-05-24T04:43:00.367Z,19.47
2018-05-24T04:44:00.333Z,19.49
2018-05-24T04:45:00.204Z,19.49
2018-05-24T04:46:00.207Z,19.5
2018-05-24T04:47:00.143Z,19.46
2018-05-24T04:48:00.339Z,19.5
2018-05-24T04:49:00.294Z,19.47
2018-05-24T04:50:00.303Z,19.5
2018-05-24T04:51:00.240Z,19.49
2018-05-24T04:52:00.257Z,19.49
2018-05-24T04:53:00.184Z,19.47
2018-05-24T04:54:00.563Z,19.52
2018-05-24T04:55:00.353Z,19.47
2018-05-24T04:56:00.126Z,19.52
2018-05-24T04:57:00.121Z,19.5
2018-05-24T04:58:00.290Z,19.47
2018-05-24T04:59:00.388Z,19.47
2018-05-24T05:00:00.294Z,19.47
2018-05-24T05:01:00.217Z,19.5
2018-05-24T05:02:00.357Z,19.49
2018-05-24T05:03:00.294Z,19.49
2018-05-24T05:04:00.344Z,19.5
2018-05-24T05:05:10.185Z,19.45
2018-05-24T05:06:00.511Z,19.49
2018-05-24T05:07:00.334Z,19.47
2018-05-24T05:08:00.204Z,19.5
2018-05-24T05:09:00.246Z,19.49
2018-05-24T05:10:00.156Z,19.47
2018-05-24T05:11:00.269Z,19.49
2018-05-24T05:12:00.455Z,19.49
2018-05-24T05:13:00.274Z,19.47
2018-05-24T05:14:00.365Z,19.47
2018-05-24T05:15:00.227Z,19.49
2018-05-24T05:16:00.332Z,19.5
2018-05-24T05:17:00.294Z,19.46
2018-05-24T05:18:00.147Z,19.49
2018-05-24T05:19:00.093Z,19.47
2018-05-24T05:20:00.149Z,19.49
2018-05-24T05:21:00.266Z,19.49
2018-05-24T05:22:00.364Z,19.46
2018-05-24T05:23:00.791Z,19.47
2018-05-24T05:24:00.168Z,19.47
2018-05-24T05:25:00.378Z,19.47
2018-05-24T05:26:00.270Z,19.47
2018-05-24T05:27:00.483Z,19.49
2018-05-24T05:28:00.165Z,19.5
2018-05-24T05:29:00.247Z,19.49
2018-05-24T05:30:00.433Z,19.47
2018-05-24T05:31:00.178Z,19.46
2018-05-24T05:32:00.269Z,19.47
2018-05-24T05:33:00.138Z,19.47
2018-05-24T05:34:00.286Z,19.47
2018-05-24T05:35:00.256Z,19.5
2018-05-24T05:36:00.213Z,19.47
2018-05-24T05:37:00.376Z,19.45
2018-05-24T05:38:00.308Z,19.47
2018-05-24T05:39:00.226Z,19.47
2018-05-24T05:40:00.346Z,19.5
2018-05-24T05:41:00.215Z,19.5
2018-05-24T05:42:00.169Z,19.47
2018-05-24T05:43:00.337Z,19.49
2018-05-24T05:44:00.268Z,19.46
2018-05-24T05:45:00.151Z,19.47
2018-05-24T05:46:00.160Z,19.49
2018-05-24T05:47:00.465Z,19.47
2018-05-24T05:48:00.290Z,19.5
2018-05-24T05:49:00.230Z,19.47
2018-05-24T05:50:00.224Z,19.47
2018-05-24T05:51:00.120Z,19.49
2018-05-24T05:52:00.898Z,19.46
2018-05-24T05:53:00.335Z,19.47
2018-05-24T05:54:00.366Z,19.5
2018-05-24T05:55:00.398Z,19.46
2018-05-24T05:56:00.347Z,19.49
2018-05-24T05:57:00.172Z,19.46
2018-05-24T05:58:00.272Z,19.46
2018-05-24T05:59:00.302Z,19.46
2018-05-24T06:00:00.100Z,19.46
2018-05-24T06:01:00.167Z,19.47
2018-05-24T06:02:01.156Z,19.46
2018-05-24T06:03:00.257Z,19.49
2018-05-24T06:04:00.253Z,19.47
2018-05-24T06:05:00.352Z,19.5
2018-05-24T06:06:00.202Z,19.47
2018-05-24T06:07:00.232Z,19.49
2018-05-24T06:08:00.225Z,19.46
2018-05-24T06:09:00.139Z,19.49
2018-05-24T06:10:00.108Z,19.47
2018-05-24T06:11:00.115Z,19.49
2018-05-24T06:12:00.394Z,19.49
2018-05-24T06:13:00.334Z,19.46
2018-05-24T06:14:00.168Z,19.46
2018-05-24T06:15:00.225Z,19.46
2018-05-24T06:16:00.548Z,19.46
2018-05-24T06:17:00.283Z,19.49
2018-05-24T06:18:00.222Z,19.46
2018-05-24T06:19:00.298Z,19.47
2018-05-24T06:20:00.213Z,19.49
2018-05-24T06:21:00.292Z,19.49
2018-05-24T06:22:00.126Z,19.47
2018-05-24T06:23:00.251Z,19.47
2018-05-24T06:24:00.255Z,19.49
2018-05-24T06:25:00.242Z,19.47
2018-05-24T06:26:00.264Z,19.49
2018-05-24T06:27:00.102Z,19.47
2018-05-24T06:28:00.337Z,19.49
2018-05-24T06:29:00.329Z,19.46
2018-05-24T06:30:00.267Z,19.49
2018-05-24T06:31:00.236Z,19.47
2018-05-24T06:32:00.982Z,19.47
2018-05-24T06:33:00.368Z,19.47
2018-05-24T06:34:00.354Z,19.46
2018-05-24T06:35:00.257Z,19.47
2018-05-24T06:36:00.117Z,19.46
2018-05-24T06:37:00.336Z,19.46
2018-05-24T06:38:00.313Z,19.46
2018-05-24T06:39:00.410Z,19.47
2018-05-24T06:40:00.212Z,19.47
2018-05-24T06:41:00.195Z,19.49
2018-05-24T06:42:00.352Z,19.47
2018-05-24T06:43:00.099Z,19.46
2018-05-24T06:44:00.284Z,19.47
2018-05-24T06:45:00.164Z,19.47
2018-05-24T06:46:00.379Z,19.45
2018-05-24T06:47:00.347Z,19.47
2018-05-24T06:48:00.200Z,19.46
2018-05-24T06:49:00.226Z,19.49
2018-05-24T06:50:00.263Z,19.46
2018-05-24T06:51:00.323Z,19.47
2018-05-24T06:52:00.241Z,19.47
2018-05-24T06:53:00.248Z,19.46
2018-05-24T06:54:00.373Z,19.46
2018-05-24T06:55:00.114Z,19.46
2018-05-24T06:56:00.228Z,19.46
2018-05-24T06:57:00.315Z,19.47
2018-05-24T06:58:00.148Z,19.49
2018-05-24T06:59:00.246Z,19.46
2018-05-24T07:00:01.175Z,19.46
2018-05-24T07:01:00.169Z,19.49
2018-05-24T07:02:00.214Z,19.47
2018-05-24T07:03:00.238Z,19.47
2018-05-24T07:04:00.284Z,19.45
2018-05-24T07:05:00.085Z,19.46
2018-05-24T07:06:01.172Z,19.46
2018-05-24T07:07:00.300Z,19.46
2018-05-24T07:08:00.262Z,19.46
2018-05-24T07:09:00.218Z,19.45
2018-05-24T07:10:00.241Z,19.46
2018-05-24T07:11:00.755Z,19.46
2018-05-24T07:12:00.107Z,19.47
2018-05-24T07:13:00.263Z,19.46
2018-05-24T07:14:00.254Z,19.47
2018-05-24T07:15:00.288Z,19.49
2018-05-24T07:16:00.201Z,19.49
2018-05-24T07:17:00.159Z,19.49
2018-05-24T07:18:00.109Z,19.46
2018-05-24T07:19:00.132Z,19.47
2018-05-24T07:20:00.327Z,19.47
2018-05-24T07:21:00.093Z,19.46
2018-05-24T07:22:00.094Z,19.47
2018-05-24T07:23:00.205Z,19.47
2018-05-24T07:24:00.317Z,19.46
2018-05-24T07:25:00.260Z,19.46
2018-05-24T07:26:00.296Z,19.46
2018-05-24T07:27:00.310Z,19.47
2018-05-24T07:28:00.383Z,19.46
2018-05-24T07:29:00.142Z,19.5
2018-05-24T07:30:00.051Z,19.46
2018-05-24T07:31:00.103Z,19.46
2018-05-24T07:32:00.284Z,19.5
2018-05-24T07:33:00.309Z,19.46
2018-05-24T07:34:00.152Z,19.49
2018-05-24T07:35:00.274Z,19.45
2018-05-24T07:36:00.214Z,19.46
2018-05-24T07:37:00.142Z,19.46
2018-05-24T07:38:00.074Z,19.47
2018-05-24T07:39:20.551Z,19.47
2018-05-24T07:40:00.159Z,19.47
2018-05-24T07:41:00.198Z,19.46
2018-05-24T07:42:00.203Z,19.49
2018-05-24T07:43:00.079Z,19.47
2018-05-24T07:44:00.098Z,19.49
2018-05-24T07:45:00.805Z,19.46
2018-05-24T07:46:00.293Z,19.45
2018-05-24T07:47:00.424Z,19.47
2018-05-24T07:48:00.105Z,19.47
2018-05-24T07:49:00.295Z,19.46
2018-05-24T07:50:00.103Z,19.45
2018-05-24T07:51:00.190Z,19.47
2018-05-24T07:52:00.271Z,19.47
2018-05-24T07:53:00.296Z,19.49
2018-05-24T07:54:03.239Z,19.47
2018-05-24T07:55:00.080Z,19.46
2018-05-24T07:56:00.148Z,19.46
2018-05-24T07:57:00.266Z,19.45
2018-05-24T07:58:00.276Z,19.46
2018-05-24T07:59:00.139Z,19.47
2018-05-24T08:00:00.166Z,19.46
2018-05-24T08:01:00.276Z,19.47
2018-05-24T08:02:00.206Z,19.46
2018-05-24T08:03:00.132Z,19.45
2018-05-24T08:04:00.310Z,19.46
2018-05-24T08:04:59.983Z,19.46
2018-05-24T08:06:00.111Z,19.45
2018-05-24T08:07:00.322Z,19.45
2018-05-24T08:08:00.195Z,19.46
2018-05-24T08:09:00.142Z,19.45
2018-05-24T08:10:00.195Z,19.46
2018-05-24T08:11:00.182Z,19.47
2018-05-24T08:12:00.255Z,19.49
2018-05-24T08:13:00.287Z,19.52
2018-05-24T08:14:00.111Z,19.52
2018-05-24T08:15:00.324Z,19.56
2018-05-24T08:16:00.110Z,19.54
2018-05-24T08:17:00.417Z,19.54
2018-05-24T08:18:00.170Z,19.56
2018-05-24T08:19:00.365Z,19.58
2018-05-24T08:20:00.406Z,19.6
2018-05-24T08:21:00.106Z,19.57
2018-05-24T08:22:00.161Z,19.54
2018-05-24T08:23:00.139Z,19.61
2018-05-24T08:24:00.233Z,19.58
2018-05-24T08:25:00.107Z,19.61
2018-05-24T08:26:00.343Z,19.61
2018-05-24T08:27:00.129Z,19.63
2018-05-24T08:28:00.357Z,19.65
2018-05-24T08:29:00.110Z,19.61
2018-05-24T08:30:00.192Z,19.61
2018-05-24T08:31:00.163Z,19.64
2018-05-24T08:32:00.088Z,19.65
2018-05-24T08:33:00.266Z,19.64
2018-05-24T08:34:00.139Z,19.63
2018-05-24T08:35:00.447Z,19.63
2018-05-24T08:36:00.172Z,19.61
2018-05-24T08:37:00.315Z,19.61
2018-05-24T08:38:00.354Z,19.6
2018-05-24T08:39:00.138Z,19.58
2018-05-24T08:40:00.620Z,19.58
2018-05-24T08:41:01.048Z,19.6
2018-05-24T08:42:00.229Z,19.57
2018-05-24T08:43:00.288Z,19.58
2018-05-24T08:44:00.110Z,19.58
2018-05-24T08:45:00.337Z,19.56
2018-05-24T08:46:00.167Z,19.57
2018-05-24T08:47:00.484Z,19.54
2018-05-24T08:48:00.147Z,19.53
2018-05-24T08:49:00.146Z,19.57
2018-05-24T08:49:59.997Z,19.56
2018-05-24T08:51:00.159Z,19.56
2018-05-24T08:52:00.290Z,19.54
2018-05-24T08:53:00.072Z,19.54
2018-05-24T08:54:00.323Z,19.53
2018-05-24T08:55:00.331Z,19.54
2018-05-24T08:56:00.289Z,19.52
2018-05-24T08:57:00.135Z,19.54
2018-05-24T08:58:00.305Z,19.54
2018-05-24T08:59:00.189Z,19.56
2018-05-24T09:00:00.150Z,19.56
2018-05-24T09:01:00.060Z,19.52
2018-05-24T09:02:00.172Z,19.53
2018-05-24T09:03:00.232Z,19.52
2018-05-24T09:04:00.099Z,19.52
2018-05-24T09:05:00.250Z,19.54
2018-05-24T09:06:00.370Z,19.54
2018-05-24T09:07:00.208Z,19.49
2018-05-24T09:08:00.225Z,19.52
2018-05-24T09:09:00.577Z,19.52
2018-05-24T09:10:00.090Z,19.53
2018-05-24T09:11:00.250Z,19.54
2018-05-24T09:12:00.239Z,19.53
2018-05-24T09:13:00.112Z,19.56
2018-05-24T09:14:00.237Z,19.56
2018-05-24T09:15:00.277Z,19.54
2018-05-24T09:16:00.089Z,19.5
2018-05-24T09:17:00.407Z,19.54
2018-05-24T09:18:00.488Z,19.5
2018-05-24T09:19:00.065Z,19.53
2018-05-24T09:20:00.379Z,19.54
2018-05-24T09:21:00.240Z,19.52
2018-05-24T09:22:00.181Z,19.5
2018-05-24T09:23:00.137Z,19.5
2018-05-24T09:24:00.149Z,19.52
2018-05-24T09:25:00.300Z,19.53
2018-05-24T09:26:00.192Z,19.53
2018-05-24T09:27:00.217Z,19.56
2018-05-24T09:28:00.207Z,19.54
2018-05-24T09:29:00.194Z,19.54
2018-05-24T09:30:00.324Z,19.54
2018-05-24T09:31:00.287Z,19.52
2018-05-24T09:32:00.329Z,19.49
2018-05-24T09:33:00.171Z,19.5
2018-05-24T09:34:00.042Z,19.53
2018-05-24T09:35:00.234Z,19.53
2018-05-24T09:36:00.353Z,19.56
2018-05-24T09:37:00.020Z,19.52
2018-05-24T09:38:00.257Z,19.52
2018-05-24T09:39:00.317Z,19.5
2018-05-24T09:40:00.182Z,19.49
2018-05-24T09:41:00.130Z,19.53
2018-05-24T09:42:00.153Z,19.5
2018-05-24T09:43:00.314Z,19.52
2018-05-24T09:44:00.316Z,19.5
2018-05-24T09:45:00.178Z,19.5
2018-05-24T09:45:59.961Z,19.53
2018-05-24T09:47:00.211Z,19.49
2018-05-24T09:48:00.270Z,19.52
2018-05-24T09:49:00.132Z,19.49
2018-05-24T09:50:00.028Z,19.53
2018-05-24T09:51:00.236Z,19.47
2018-05-24T09:52:00.295Z,19.5
2018-05-24T09:53:00.132Z,19.49
2018-05-24T09:54:00.552Z,19.49
2018-05-24T09:55:00.106Z,19.52
2018-05-24T09:56:00.201Z,19.5
2018-05-24T09:57:00.185Z,19.5
2018-05-24T09:58:00.318Z,19.47
2018-05-24T09:59:00.066Z,19.5
2018-05-24T10:00:00.607Z,19.5
2018-05-24T10:01:00.251Z,19.52
2018-05-24T10:02:00.322Z,19.5
2018-05-24T10:03:00.239Z,19.53
2018-05-24T10:04:00.161Z,19.5
2018-05-24T10:05:00.389Z,19.5
2018-05-24T10:06:00.117Z,19.5
2018-05-24T10:07:00.143Z,19.53
2018-05-24T10:08:00.219Z,19.53
2018-05-24T10:09:00.041Z,19.47
2018-05-24T10:10:00.287Z,19.5
2018-05-24T10:11:00.132Z,19.52
2018-05-24T10:12:00.010Z,19.52
2018-05-24T10:13:00.215Z,19.5
2018-05-24T10:14:00.213Z,19.52
2018-05-24T10:15:00.027Z,19.49
2018-05-24T10:16:00.128Z,19.52
2018-05-24T10:17:00.098Z,19.46
2018-05-24T10:18:00.370Z,19.49
2018-05-24T10:19:00.636Z,19.5
2018-05-24T10:20:00.240Z,19.47
2018-05-24T10:21:00.107Z,19.5
2018-05-24T10:22:00.100Z,19.5
2018-05-24T10:23:00.301Z,19.49
2018-05-24T10:24:00.247Z,19.49
2018-05-24T10:25:00.076Z,19.46
2018-05-24T10:26:00.363Z,19.49
2018-05-24T10:27:00.102Z,19.49
2018-05-24T10:28:00.373Z,19.52
2018-05-24T10:29:00.248Z,19.5
2018-05-24T10:30:00.115Z,19.49
2018-05-24T10:31:00.549Z,19.49
2018-05-24T10:32:00.038Z,19.5
2018-05-24T10:33:00.048Z,19.46
2018-05-24T10:34:00.254Z,19.49
2018-05-24T10:35:00.227Z,19.5
2018-05-24T10:36:00.119Z,19.5
2018-05-24T10:37:01.706Z,19.52
2018-05-24T10:38:00.742Z,19.49
2018-05-24T10:39:00.161Z,19.49
2018-05-24T10:40:00.150Z,19.5
2018-05-24T10:41:00.172Z,19.47
2018-05-24T10:41:59.954Z,19.47
2018-05-24T10:43:00.251Z,19.49
2018-05-24T10:44:00.227Z,19.49
2018-05-24T10:45:00.285Z,19.47
2018-05-24T10:46:00.052Z,19.49
2018-05-24T10:47:00.070Z,19.47
2018-05-24T10:48:00.159Z,19.5
2018-05-24T10:49:00.079Z,19.47
2018-05-24T10:50:00.171Z,19.5
2018-05-24T10:51:00.495Z,19.49
2018-05-24T10:52:00.229Z,19.49
2018-05-24T10:53:00.278Z,19.47
2018-05-24T10:54:00.670Z,19.49
2018-05-24T10:55:00.049Z,19.49
2018-05-24T10:56:00.719Z,19.5
2018-05-24T10:57:00.098Z,19.49
2018-05-24T10:58:00.072Z,19.5
2018-05-24T10:59:00.181Z,19.52
2018-05-24T11:00:00.089Z,19.49
2018-05-24T11:01:00.353Z,19.49
2018-05-24T11:02:00.128Z,19.5
2018-05-24T11:03:00.926Z,19.47
2018-05-24T11:04:00.094Z,19.52
2018-05-24T11:05:00.217Z,19.5
2018-05-24T11:06:00.404Z,19.49
2018-05-24T11:07:00.183Z,19.5
2018-05-24T11:08:00.266Z,19.5
2018-05-24T11:09:00.149Z,19.49
2018-05-24T11:10:00.228Z,19.49
2018-05-24T11:11:00.192Z,19.5
2018-05-24T11:12:00.104Z,19.46
2018-05-24T11:13:00.191Z,19.5
2018-05-24T11:14:00.129Z,19.49
2018-05-24T11:15:00.292Z,19.5
2018-05-24T11:16:00.199Z,19.5
2018-05-24T11:17:00.144Z,19.5
2018-05-24T11:18:00.008Z,19.5
2018-05-24T11:19:00.050Z,19.52
2018-05-24T11:20:00.336Z,19.5
2018-05-24T11:21:00.343Z,19.5
2018-05-24T11:22:00.180Z,19.5
2018-05-24T11:23:00.083Z,19.5
2018-05-24T11:24:00.075Z,19.49
2018-05-24T11:25:00.280Z,19.47
2018-05-24T11:26:00.152Z,19.5
2018-05-24T11:27:00.155Z,19.52
2018-05-24T11:28:00.353Z,19.52
2018-05-24T11:29:00.318Z,19.52
2018-05-24T11:30:00.293Z,19.52
2018-05-24T11:31:00.198Z,19.49
2018-05-24T11:32:00.909Z,19.52
2018-05-24T11:33:00.439Z,19.47
2018-05-24T11:34:00.401Z,19.49
2018-05-24T11:35:00.223Z,19.52
2018-05-24T11:36:00.200Z,19.52
2018-05-24T11:37:00.980Z,19.49
2018-05-24T11:38:00.233Z,19.49
2018-05-24T11:39:00.103Z,19.52
2018-05-24T11:40:00.376Z,19.5
2018-05-24T11:41:00.145Z,19.52
2018-05-24T11:42:00.300Z,19.52
2018-05-24T11:43:00.709Z,19.53
2018-05-24T11:44:00.252Z,19.52
2018-05-24T11:45:00.093Z,19.5
2018-05-24T11:46:00.249Z,19.5
2018-05-24T11:47:00.400Z,19.52
2018-05-24T11:48:00.061Z,19.5
2018-05-24T11:49:00.063Z,19.52
2018-05-24T11:50:00.166Z,19.5
2018-05-24T11:51:00.036Z,19.52
2018-05-24T11:52:00.614Z,19.5
2018-05-24T11:53:00.206Z,19.5
2018-05-24T11:54:00.102Z,19.53
2018-05-24T11:55:00.286Z,19.53
2018-05-24T11:56:00.336Z,19.5
2018-05-24T11:57:00.114Z,19.53
2018-05-24T11:58:00.229Z,19.49
2018-05-24T11:59:00.206Z,19.5
2018-05-24T12:00:00.143Z,19.5
2018-05-24T12:01:00.239Z,19.52
2018-05-24T12:02:00.149Z,19.49
2018-05-24T12:03:00.090Z,19.52
2018-05-24T12:04:00.240Z,19.49
2018-05-24T12:05:00.158Z,19.5
2018-05-24T12:06:00.224Z,19.52
2018-05-24T12:07:00.729Z,19.5
2018-05-24T12:08:00.123Z,19.5
2018-05-24T12:09:00.145Z,19.52
2018-05-24T12:10:00.091Z,19.52
2018-05-24T12:11:00.194Z,19.5
2018-05-24T12:12:00.040Z,19.52
2018-05-24T12:13:00.098Z,19.52
2018-05-24T12:14:00.064Z,19.52
2018-05-24T12:15:00.233Z,19.53
2018-05-24T12:16:00.081Z,19.49
2018-05-24T12:17:00.096Z,19.52
2018-05-24T12:18:00.125Z,19.49
2018-05-24T12:19:00.203Z,19.52
2018-05-24T12:20:00.309Z,19.5
2018-05-24T12:21:00.055Z,19.5
2018-05-24T12:22:00.063Z,19.5
2018-05-24T12:23:00.220Z,19.52
2018-05-24T12:24:00.008Z,19.53
2018-05-24T12:25:00.418Z,19.47
2018-05-24T12:26:00.175Z,19.5
2018-05-24T12:27:00.188Z,19.5
2018-05-24T12:28:00.162Z,19.47
2018-05-24T12:29:00.288Z,19.46
2018-05-24T12:30:00.129Z,19.49
2018-05-24T12:31:00.245Z,19.5
2018-05-24T12:32:00.228Z,19.49
2018-05-24T12:33:00.218Z,19.47
2018-05-24T12:34:00.404Z,19.52
2018-05-24T12:35:00.267Z,19.49
2018-05-24T12:36:00.079Z,19.5
2018-05-24T12:36:59.988Z,19.47
2018-05-24T12:38:00.149Z,19.47
2018-05-24T12:39:00.213Z,19.5
2018-05-24T12:40:00.185Z,19.46
2018-05-24T12:41:00.112Z,19.47
2018-05-24T12:42:00.092Z,19.5
2018-05-24T12:43:00.249Z,19.5
2018-05-24T12:44:00.121Z,19.49
2018-05-24T12:45:00.167Z,19.49
2018-05-24T12:46:00.214Z,19.49
2018-05-24T12:47:00.283Z,19.47
2018-05-24T12:48:00.084Z,19.49
2018-05-24T12:49:00.488Z,19.5
2018-05-24T12:50:00.315Z,19.46
2018-05-24T12:51:00.099Z,19.5
2018-05-24T12:52:00.036Z,19.5
2018-05-24T12:53:00.391Z,19.47
2018-05-24T12:54:00.315Z,19.46
2018-05-24T12:55:00.338Z,19.46
2018-05-24T12:56:00.149Z,19.46
2018-05-24T12:57:00.089Z,19.45